createdAt,value
2023-02-09T00:01:06.267Z,102573.13
2023-02-09T00:04:15.652Z,102582.91
2023-02-09T00:07:20.764Z,102563.72
2023-02-09T00:10:26.045Z,102553.63
2023-02-09T00:13:31.609Z,102547.09
2023-02-09T00:16:36.881Z,102533.59
2023-02-09T00:19:42.150Z,102540.28
2023-02-09T00:22:47.297Z,102534.41
2023-02-09T00:25:52.652Z,102532.88
2023-02-09T00:28:59.202Z,102520.28
2023-02-09T00:32:04.010Z,102523.78
2023-02-09T00:35:09.513Z,102516.75
2023-02-09T00:38:15.376Z,102500.06
2023-02-09T00:41:40.849Z,102496.19
2023-02-09T00:44:48.043Z,102497.00
2023-02-09T00:47:54.887Z,102486.88
2023-02-09T00:51:00.167Z,102479.38
2023-02-09T00:54:05.868Z,102488.22
2023-02-09T00:57:12.133Z,102466.31
2023-02-09T01:00:19.777Z,102463.84
2023-02-09T01:03:25.290Z,102464.06
2023-02-09T01:06:31.869Z,102460.41
2023-02-09T01:09:36.989Z,102451.94
2023-02-09T01:12:45.022Z,102457.09
2023-02-09T01:15:51.632Z,102460.75
2023-02-09T01:18:59.837Z,102459.03
2023-02-09T01:22:06.629Z,102448.84
2023-02-09T01:25:12.221Z,102441.81
2023-02-09T01:28:17.432Z,102425.44
2023-02-09T01:31:26.604Z,102421.09
2023-02-09T01:34:31.843Z,102417.59
2023-02-09T01:37:37.490Z,102396.75
2023-02-09T01:40:47.678Z,102387.47
2023-02-09T01:43:55.222Z,102392.03
2023-02-09T01:47:01.543Z,102399.22
2023-02-09T01:50:09.986Z,102372.56
2023-02-09T01:53:15.538Z,102382.03
2023-02-09T01:56:27.638Z,102375.38
2023-02-09T01:59:35.213Z,102362.38
2023-02-09T02:02:42.210Z,102370.84
2023-02-09T02:05:54.628Z,102370.50
2023-02-09T02:09:02.662Z,102361.44
2023-02-09T02:12:08.291Z,102341.34
2023-02-09T02:15:14.218Z,102344.63
2023-02-09T02:18:30.194Z,102347.41
2023-02-09T02:22:08.805Z,102340.59
2023-02-09T02:25:51.406Z,102323.81
2023-02-09T02:29:35.995Z,102322.75
2023-02-09T02:32:56.713Z,102304.94
2023-02-09T02:36:09.376Z,102300.75
2023-02-09T02:39:19.538Z,102293.25
2023-02-09T02:42:45.916Z,102303.16
2023-02-09T02:45:55.164Z,102286.25
2023-02-09T02:49:05.056Z,102297.06
2023-02-09T02:52:12.910Z,102286.31
2023-02-09T02:55:21.353Z,102276.94
2023-02-09T02:58:28.075Z,102275.41
2023-02-09T03:01:35.854Z,102258.22
2023-02-09T03:04:42.961Z,102240.53
2023-02-09T03:07:48.239Z,102245.44
2023-02-09T03:10:53.461Z,102228.25
2023-02-09T03:14:13.342Z,102224.47
2023-02-09T03:17:26.495Z,102212.13
2023-02-09T03:20:38.252Z,102212.72
2023-02-09T03:23:48.819Z,102211.84
2023-02-09T03:26:56.401Z,102203.03
2023-02-09T03:30:04.449Z,102198.38
2023-02-09T03:33:21.120Z,102200.41
2023-02-09T03:36:32.085Z,102176.13
2023-02-09T03:39:37.208Z,102176.19
2023-02-09T03:42:42.317Z,102165.69
2023-02-09T03:45:48.009Z,102175.22
2023-02-09T03:48:52.746Z,102174.41
2023-02-09T03:52:00.811Z,102164.13
2023-02-09T03:55:06.294Z,102174.88
2023-02-09T03:58:14.601Z,102166.63
2023-02-09T04:01:19.714Z,102152.19
2023-02-09T04:04:25.979Z,102162.50
2023-02-09T04:07:32.407Z,102150.66
2023-02-09T04:10:37.877Z,102158.09
2023-02-09T04:13:43.056Z,102150.66
2023-02-09T04:16:48.330Z,102142.88
2023-02-09T04:19:53.185Z,102134.59
2023-02-09T04:22:59.866Z,102145.31
2023-02-09T04:26:05.700Z,102144.22
2023-02-09T04:29:10.831Z,102137.81
2023-02-09T04:32:15.914Z,102131.72
2023-02-09T04:35:21.152Z,102121.63
2023-02-09T04:38:27.935Z,102127.44
2023-02-09T04:41:32.813Z,102107.28
2023-02-09T04:44:37.852Z,102124.06
2023-02-09T04:47:43.206Z,102105.38
2023-02-09T04:50:48.691Z,102099.56
2023-02-09T04:53:55.307Z,102088.50
2023-02-09T04:57:14.314Z,102084.31
2023-02-09T05:00:20.190Z,102092.91
2023-02-09T05:03:26.055Z,102083.50
2023-02-09T05:06:31.252Z,102074.28
2023-02-09T05:09:37.745Z,102072.75
2023-02-09T05:12:42.719Z,102060.91
2023-02-09T05:15:47.844Z,102069.38
2023-02-09T05:18:53.132Z,102073.69
2023-02-09T05:25:57.305Z,102064.88
2023-02-09T05:29:02.500Z,102069.03
2023-02-09T05:32:07.994Z,102047.69
2023-02-09T05:35:13.716Z,102060.19
2023-02-09T05:38:22.568Z,102056.09
2023-02-09T05:41:46.892Z,102046.09
2023-02-09T05:44:52.751Z,102057.41
2023-02-09T05:47:57.860Z,102047.19
2023-02-09T05:51:03.093Z,102048.06
2023-02-09T05:54:08.191Z,102037.22
2023-02-09T05:57:14.975Z,102035.50
2023-02-09T06:00:20.945Z,102038.13
2023-02-09T06:03:26.191Z,102033.19
2023-02-09T06:06:31.438Z,102031.22
2023-02-09T06:09:36.636Z,102028.53
2023-02-09T06:12:43.114Z,102014.59
2023-02-09T06:15:48.866Z,102017.94
2023-02-09T06:18:53.994Z,102025.31
2023-02-09T06:21:59.485Z,102026.88
2023-02-09T06:25:04.709Z,102010.06
2023-02-09T06:28:11.434Z,102018.50
2023-02-09T06:31:18.104Z,101999.44
2023-02-09T06:34:23.359Z,101992.47
2023-02-09T06:37:29.329Z,101988.38
2023-02-09T06:40:34.649Z,101978.25
2023-02-09T06:43:41.149Z,101965.53
2023-02-09T06:46:47.197Z,101972.63
2023-02-09T06:49:52.254Z,101971.66
2023-02-09T06:52:58.496Z,101968.34
2023-02-09T06:56:03.790Z,101980.84
2023-02-09T06:59:10.346Z,101966.56
2023-02-09T07:02:15.726Z,101972.53
2023-02-09T07:05:21.354Z,101968.25
2023-02-09T07:08:27.182Z,101961.53
2023-02-09T07:11:32.516Z,101963.41
2023-02-09T07:14:38.992Z,101945.66
2023-02-09T07:17:44.557Z,101937.28
2023-02-09T07:20:56.371Z,101931.31
2023-02-09T07:24:01.244Z,101925.41
2023-02-09T07:27:06.872Z,101922.78
2023-02-09T07:30:17.798Z,101921.25
2023-02-09T07:33:24.144Z,101912.00
2023-02-09T07:36:29.315Z,101919.63
2023-02-09T07:39:34.729Z,101924.59
2023-02-09T07:42:39.883Z,101925.56
2023-02-09T07:45:47.847Z,101906.19
2023-02-09T07:48:53.492Z,101906.97
2023-02-09T07:51:58.740Z,101912.09
2023-02-09T07:55:04.153Z,101898.59
2023-02-09T07:58:09.095Z,101899.38
2023-02-09T08:01:16.494Z,101895.94
2023-02-09T08:04:22.091Z,101896.00
2023-02-09T08:07:28.507Z,101894.28
2023-02-09T08:10:33.389Z,101892.69
2023-02-09T08:13:40.994Z,101880.09
2023-02-09T08:16:47.562Z,101873.38
2023-02-09T08:19:55.278Z,101864.25
2023-02-09T08:23:05.838Z,101860.81
2023-02-09T08:26:15.390Z,101859.13
2023-02-09T08:29:20.681Z,101833.84
2023-02-09T08:32:29.566Z,101834.81
2023-02-09T08:35:34.662Z,101841.50
2023-02-09T08:38:40.326Z,101848.31
2023-02-09T08:41:46.395Z,101866.88
2023-02-09T08:44:51.809Z,101866.88
2023-02-09T08:47:58.397Z,101881.97
2023-02-09T08:51:04.214Z,101867.84
2023-02-09T08:54:09.479Z,101851.03
2023-02-09T08:57:14.824Z,101858.63
2023-02-09T09:00:20.658Z,101877.22
2023-02-09T09:03:30.130Z,101872.19
2023-02-09T09:06:35.399Z,101879.84
2023-02-09T09:09:40.967Z,101877.28
2023-02-09T09:12:46.232Z,101886.59
2023-02-09T09:15:51.430Z,101864.69
2023-02-09T09:18:58.014Z,101883.25
2023-02-09T09:22:03.767Z,101878.19
2023-02-09T09:25:09.077Z,101892.47
2023-02-09T09:28:14.779Z,101889.97
2023-02-09T09:31:20.651Z,101884.84
2023-02-09T09:34:27.519Z,101888.22
2023-02-09T09:37:33.111Z,101887.34
2023-02-09T09:40:42.118Z,101863.13
2023-02-09T09:43:47.076Z,101859.75
2023-02-09T09:46:53.851Z,101848.03
2023-02-09T09:50:00.378Z,101825.25
2023-02-09T09:53:11.719Z,101812.69
2023-02-09T09:56:21.492Z,101802.44
2023-02-09T09:59:29.923Z,101789.97
2023-02-09T10:02:36.544Z,101781.56
2023-02-09T10:05:45.592Z,101790.84
2023-02-09T10:08:55.121Z,101778.28
2023-02-09T10:12:17.104Z,101770.06
2023-02-09T10:15:28.781Z,101775.13
2023-02-09T10:18:38.465Z,101765.81
2023-02-09T10:21:44.936Z,101776.72
2023-02-09T10:24:50.088Z,101773.41
2023-02-09T10:27:55.413Z,101765.88
2023-02-09T10:31:02.622Z,101762.53
2023-02-09T10:34:13.794Z,101749.97
2023-02-09T10:37:29.508Z,101743.03
2023-02-09T10:40:35.710Z,101732.16
2023-02-09T10:43:40.883Z,101747.38
2023-02-09T10:46:47.147Z,101727.22
2023-02-09T10:49:55.789Z,101729.72
2023-02-09T10:53:03.757Z,101717.03
2023-02-09T10:56:17.502Z,101719.53
2023-02-09T10:59:24.714Z,101713.69
2023-02-09T11:02:50.775Z,101706.94
2023-02-09T11:06:01.821Z,101702.03
2023-02-09T11:09:12.514Z,101703.69
2023-02-09T11:12:20.508Z,101709.69
2023-02-09T11:15:28.897Z,101697.78
2023-02-09T11:18:35.611Z,101692.81
2023-02-09T11:21:54.941Z,101692.75
2023-02-09T11:25:06.990Z,101691.03
2023-02-09T11:28:33.961Z,101698.72
2023-02-09T11:31:55.788Z,101706.38
2023-02-09T11:35:09.423Z,101690.41
2023-02-09T11:38:18.912Z,101691.25
2023-02-09T11:41:48.718Z,101681.13
2023-02-09T11:44:56.858Z,101674.50
2023-02-09T11:48:11.778Z,101677.97
2023-02-09T11:51:19.898Z,101671.09
2023-02-09T11:54:27.926Z,101666.19
2023-02-09T11:57:37.744Z,101669.47
2023-02-09T12:00:56.018Z,101669.44
2023-02-09T12:04:18.620Z,101661.13
2023-02-09T12:07:32.994Z,101662.00
2023-02-09T12:10:44.264Z,101646.91
2023-02-09T12:14:00.049Z,101656.97
2023-02-09T12:17:12.377Z,101640.19
2023-02-09T12:20:46.348Z,101667.19
2023-02-09T12:23:51.675Z,101646.97
2023-02-09T12:26:58.412Z,101640.28
2023-02-09T12:30:10.557Z,101641.16
2023-02-09T12:33:19.823Z,101634.38
2023-02-09T12:36:30.970Z,101646.22
2023-02-09T12:39:36.106Z,101629.34
2023-02-09T12:42:42.330Z,101631.91
2023-02-09T12:46:24.084Z,101637.78
2023-02-09T12:49:46.145Z,101624.41
2023-02-09T12:53:42.439Z,101626.94
2023-02-09T12:56:47.779Z,101632.75
2023-02-09T13:00:25.944Z,101624.34
2023-02-09T13:03:32.770Z,101629.38
2023-02-09T13:06:42.395Z,101618.41
2023-02-09T13:09:49.672Z,101597.34
2023-02-09T13:12:59.111Z,101599.91
2023-02-09T13:16:35.795Z,101599.03
2023-02-09T13:19:54.828Z,101579.69
2023-02-09T13:23:10.917Z,101595.72
2023-02-09T13:26:21.264Z,101589.78
2023-02-09T13:29:28.231Z,101587.28
2023-02-09T13:32:40.050Z,101580.50
2023-02-09T13:35:56.331Z,101598.25
2023-02-09T13:39:01.493Z,101579.66
2023-02-09T13:42:17.216Z,101591.50
2023-02-09T13:45:26.805Z,101601.56
2023-02-09T13:48:34.503Z,101594.81
2023-02-09T13:51:41.152Z,101594.84
2023-02-09T13:54:47.012Z,101583.13
2023-02-09T13:57:56.159Z,101578.84
2023-02-09T14:01:03.943Z,101575.50
2023-02-09T14:04:14.449Z,101556.94
2023-02-09T14:07:22.941Z,101550.28
2023-02-09T14:10:28.743Z,101546.06
2023-02-09T14:13:36.391Z,101536.78
2023-02-09T14:16:52.674Z,101533.34
2023-02-09T14:19:59.933Z,101531.72
2023-02-09T14:23:17.222Z,101535.88
2023-02-09T14:26:26.828Z,101535.91
2023-02-09T14:29:33.487Z,101519.84
2023-02-09T14:32:40.430Z,101532.50
2023-02-09T14:35:46.482Z,101517.31
2023-02-09T14:38:53.305Z,101507.19
2023-02-09T14:42:18.353Z,101507.22
2023-02-09T14:45:31.268Z,101496.22
2023-02-09T14:48:36.405Z,101494.47
2023-02-09T14:51:41.553Z,101488.50
2023-02-09T14:54:49.884Z,101479.22
2023-02-09T14:57:55.106Z,101483.31
2023-02-09T15:01:02.462Z,101473.22
2023-02-09T15:04:07.776Z,101467.22
2023-02-09T15:07:16.096Z,101463.06
2023-02-09T15:10:26.862Z,101465.53
2023-02-09T15:13:33.150Z,101454.53
2023-02-09T15:16:38.396Z,101445.91
2023-02-09T15:19:43.877Z,101432.47
2023-02-09T15:22:49.244Z,101437.38
2023-02-09T15:25:56.031Z,101434.91
2023-02-09T15:29:01.687Z,101433.94
2023-02-09T15:32:15.620Z,101427.91
2023-02-09T15:35:22.733Z,101421.13
2023-02-09T15:38:28.454Z,101425.25
2023-02-09T15:41:52.289Z,101425.38
2023-02-09T15:45:14.815Z,101427.81
2023-02-09T15:48:20.323Z,101426.09
2023-02-09T15:51:31.302Z,101423.59
2023-02-09T15:54:36.293Z,101409.38
2023-02-09T15:57:42.946Z,101416.03
2023-02-09T16:00:48.344Z,101410.97
2023-02-09T16:03:58.420Z,101402.63
2023-02-09T16:07:08.493Z,101404.13
2023-02-09T16:10:17.329Z,101386.44
2023-02-09T16:13:26.717Z,101370.56
2023-02-09T16:16:32.269Z,101373.91
2023-02-09T16:19:37.581Z,101372.94
2023-02-09T16:22:45.226Z,101366.19
2023-02-09T16:25:51.305Z,101348.53
2023-02-09T16:28:58.427Z,101362.72
2023-02-09T16:32:03.532Z,101341.19
2023-02-09T16:35:16.542Z,101352.72
2023-02-09T16:38:24.444Z,101336.78
2023-02-09T16:41:46.999Z,101336.69
2023-02-09T16:44:54.314Z,101334.22
2023-02-09T16:48:00.004Z,101316.44
2023-02-09T16:51:07.420Z,101305.59
2023-02-09T16:54:13.394Z,101314.16
2023-02-09T16:57:23.136Z,101312.56
2023-02-09T17:00:31.412Z,101308.09
2023-02-09T17:03:38.077Z,101316.47
2023-02-09T17:06:45.104Z,101315.66
2023-02-09T17:09:50.303Z,101307.38
2023-02-09T17:12:55.434Z,101313.19
2023-02-09T17:16:03.846Z,101309.00
2023-02-09T17:19:12.981Z,101305.63
2023-02-09T17:22:18.494Z,101294.56
2023-02-09T17:25:25.658Z,101285.47
2023-02-09T17:28:31.330Z,101272.81
2023-02-09T17:31:52.310Z,101273.69
2023-02-09T17:34:58.316Z,101265.47
2023-02-09T17:38:03.460Z,101257.09
2023-02-09T17:41:15.308Z,101252.72
2023-02-09T17:44:39.183Z,101247.75
2023-02-09T17:47:48.548Z,101237.53
2023-02-09T17:50:57.950Z,101214.81
2023-02-09T17:54:03.646Z,101210.59
2023-02-09T17:57:12.580Z,101203.03
2023-02-09T18:00:18.470Z,101197.94
2023-02-09T18:03:26.483Z,101192.16
2023-02-09T18:06:35.560Z,101177.81
2023-02-09T18:09:40.891Z,101166.00
2023-02-09T18:12:46.301Z,101175.16
2023-02-09T18:15:52.684Z,101156.78
2023-02-09T18:18:59.730Z,101151.63
2023-02-09T18:22:05.336Z,101130.63
2023-02-09T18:25:17.382Z,101115.63
2023-02-09T18:28:22.608Z,101109.72
2023-02-09T18:31:29.798Z,101093.75
2023-02-09T18:34:38.173Z,101086.19
2023-02-09T18:37:44.720Z,101075.25
2023-02-09T18:40:51.709Z,101050.88
2023-02-09T18:43:56.994Z,101050.06
2023-02-09T18:47:02.676Z,101031.72
2023-02-09T18:50:10.635Z,101032.50
2023-02-09T18:53:18.988Z,101031.66
2023-02-09T18:56:25.916Z,101015.69
2023-02-09T18:59:31.839Z,101003.91
2023-02-09T19:02:37.179Z,100992.97
2023-02-09T19:05:43.993Z,100983.72
2023-02-09T19:08:50.501Z,100981.25
2023-02-09T19:11:55.737Z,100966.88
2023-02-09T19:15:01.397Z,100964.34
2023-02-09T19:18:07.326Z,100959.31
2023-02-09T19:21:14.178Z,100958.56
2023-02-09T19:24:19.665Z,100953.56
2023-02-09T19:27:26.198Z,100940.88
2023-02-09T19:30:31.553Z,100922.31
2023-02-09T19:33:37.111Z,100915.63
2023-02-09T19:36:44.079Z,100897.09
2023-02-09T19:40:00.332Z,100898.81
2023-02-09T19:43:06.097Z,100893.72
2023-02-09T19:46:11.972Z,100898.88
2023-02-09T19:49:17.489Z,100889.59
2023-02-09T19:52:24.476Z,100884.50
2023-02-09T19:55:29.849Z,100878.66
2023-02-09T19:58:34.956Z,100881.13
2023-02-09T20:01:40.168Z,100877.75
2023-02-09T20:04:46.008Z,100866.84
2023-02-09T20:07:53.781Z,100844.94
2023-02-09T20:10:59.205Z,100840.75
2023-02-09T20:14:05.484Z,100812.16
2023-02-09T20:17:11.138Z,100797.91
2023-02-09T20:20:16.096Z,100775.22
2023-02-09T20:23:23.920Z,100769.28
2023-02-09T20:26:33.091Z,100758.31
2023-02-09T20:29:38.506Z,100749.09
2023-02-09T20:32:43.782Z,100744.91
2023-02-09T20:35:48.857Z,100735.59
2023-02-09T20:38:56.229Z,100719.69
2023-02-09T20:42:19.173Z,100712.09
2023-02-09T20:45:41.792Z,100696.09
2023-02-09T20:48:46.945Z,100685.16
2023-02-09T20:51:52.590Z,100679.28
2023-02-09T20:54:59.983Z,100673.41
2023-02-09T20:58:09.383Z,100650.69
2023-02-09T21:01:14.732Z,100610.28
2023-02-09T21:04:20.099Z,100617.88
2023-02-09T21:07:25.597Z,100622.09
2023-02-09T21:10:35.505Z,100615.34
2023-02-09T21:13:41.254Z,100600.22
2023-02-09T21:16:46.356Z,100594.28
2023-02-09T21:19:51.734Z,100585.00
2023-02-09T21:22:56.978Z,100586.75
2023-02-09T21:26:04.477Z,100574.09
2023-02-09T21:29:13.151Z,100556.38
2023-02-09T21:32:19.044Z,100557.28
2023-02-09T21:35:24.514Z,100536.22
2023-02-09T21:38:29.650Z,100555.59
2023-02-09T21:41:54.103Z,100546.28
2023-02-09T21:44:59.712Z,100549.63
2023-02-09T21:48:05.120Z,100523.53
2023-02-09T21:51:10.203Z,100521.84
2023-02-09T21:54:16.557Z,100521.84
2023-02-09T21:57:23.286Z,100516.84
2023-02-09T22:00:30.822Z,100510.16
2023-02-09T22:03:35.857Z,100500.09
2023-02-09T22:06:41.714Z,100498.41
2023-02-09T22:09:47.028Z,100513.56
2023-02-09T22:12:53.630Z,100490.81
2023-02-09T22:15:58.914Z,100493.31
2023-02-09T22:19:04.050Z,100498.44
2023-02-09T22:22:09.451Z,100483.34
2023-02-09T22:25:14.638Z,100466.47
2023-02-09T22:28:20.972Z,100469.75
2023-02-09T22:31:26.263Z,100461.34
2023-02-09T22:34:31.131Z,100457.09
2023-02-09T22:37:36.299Z,100449.50
2023-02-09T22:40:43.509Z,100482.31
2023-02-09T22:43:50.917Z,100479.63
2023-02-09T22:46:56.399Z,100489.03
2023-02-09T22:50:01.651Z,100489.81
2023-02-09T22:53:06.846Z,100485.59
2023-02-09T22:56:13.028Z,100500.78
2023-02-09T22:59:19.754Z,100499.09
2023-02-09T23:02:25.715Z,100513.38
2023-02-09T23:05:30.786Z,100497.38
2023-02-09T23:08:36.023Z,100512.53
2023-02-09T23:11:41.304Z,100525.94
2023-02-09T23:14:47.927Z,100539.41
2023-02-09T23:17:53.161Z,100536.00
2023-02-09T23:20:58.344Z,100540.16
2023-02-09T23:24:03.583Z,100562.91
2023-02-09T23:27:08.445Z,100579.69
2023-02-09T23:30:15.910Z,100565.34
2023-02-09T23:33:20.971Z,100573.84
2023-02-09T23:36:27.905Z,100575.53
2023-02-09T23:39:33.058Z,100576.38
2023-02-09T23:42:38.389Z,100591.53
2023-02-09T23:45:46.069Z,100584.03
2023-02-09T23:48:54.738Z,100590.78
2023-02-09T23:51:59.895Z,100611.00
2023-02-09T23:55:04.740Z,100602.56
2023-02-09T23:58:10.063Z,100611.81
